createdAt,value
2022-09-02T00:00:20.891Z,14.22
2022-09-02T00:03:07.140Z,13.44
2022-09-02T00:05:52.300Z,13.53
2022-09-02T00:08:38.660Z,13.97
2022-09-02T00:11:27.582Z,14.74
2022-09-02T00:14:18.210Z,13.70
2022-09-02T00:17:04.802Z,13.73
2022-09-02T00:19:55.546Z,14.85
2022-09-02T00:22:41.650Z,14.41
2022-09-02T00:25:27.336Z,14.67
2022-09-02T00:28:14.589Z,13.62
2022-09-02T00:31:01.727Z,13.55
2022-09-02T00:33:47.374Z,13.36
2022-09-02T00:36:33.595Z,13.85
2022-09-02T00:39:19.479Z,14.18
2022-09-02T00:42:05.830Z,13.66
2022-09-02T00:44:52.170Z,12.84
2022-09-02T00:47:38.367Z,12.71
2022-09-02T00:50:29.828Z,13.66
2022-09-02T00:53:15.494Z,13.87
2022-09-02T00:56:02.451Z,13.27
2022-09-02T00:58:50.462Z,13.03
2022-09-02T01:01:36.194Z,14.02
2022-09-02T01:04:21.928Z,13.87
2022-09-02T01:07:07.383Z,12.98
2022-09-02T01:09:55.618Z,13.88
2022-09-02T01:12:41.310Z,12.84
2022-09-02T01:15:30.267Z,12.33
2022-09-02T01:18:20.344Z,13.31
2022-09-02T01:21:06.834Z,13.04
2022-09-02T01:23:53.080Z,13.22
2022-09-02T01:26:38.581Z,12.88
2022-09-02T01:29:25.125Z,11.88
2022-09-02T01:32:12.115Z,12.83
2022-09-02T01:34:57.973Z,12.99
2022-09-02T01:37:54.838Z,12.40
2022-09-02T01:40:41.791Z,12.89
2022-09-02T01:43:29.875Z,11.60
2022-09-02T01:46:15.721Z,11.51
2022-09-02T01:49:01.540Z,11.63
2022-09-02T01:51:47.116Z,11.91
2022-09-02T01:54:32.728Z,12.65
2022-09-02T01:57:18.636Z,12.21
2022-09-02T02:00:07.254Z,11.57
2022-09-02T02:02:58.070Z,11.23
2022-09-02T02:05:44.939Z,12.28
2022-09-02T02:08:33.884Z,11.97
2022-09-02T02:11:24.025Z,10.90
2022-09-02T02:14:14.895Z,11.76
2022-09-02T02:17:05.798Z,11.70
2022-09-02T02:19:51.228Z,10.56
2022-09-02T02:22:37.217Z,10.41
2022-09-02T02:25:22.956Z,11.48
2022-09-02T02:28:11.561Z,11.21
2022-09-02T02:30:58.278Z,10.84
2022-09-02T02:33:44.094Z,9.79
2022-09-02T02:36:30.572Z,10.96
2022-09-02T02:39:17.105Z,10.87
2022-09-02T02:42:02.378Z,9.58
2022-09-02T02:44:47.703Z,10.76
2022-09-02T02:47:33.597Z,10.75
2022-09-02T02:50:21.749Z,10.77
2022-09-02T02:53:08.893Z,9.54
2022-09-02T02:55:59.656Z,10.33
2022-09-02T02:58:45.515Z,10.79
2022-09-02T03:01:32.774Z,9.56
2022-09-02T03:04:18.988Z,9.75
2022-09-02T03:07:07.233Z,11.11
2022-09-02T03:09:52.825Z,9.92
2022-09-02T03:12:39.728Z,11.32
2022-09-02T03:15:26.488Z,11.50
2022-09-02T03:18:12.733Z,11.38
2022-09-02T03:20:58.447Z,11.56
2022-09-02T03:23:45.339Z,11.32
2022-09-02T03:26:31.362Z,10.21
2022-09-02T03:29:17.201Z,11.46
2022-09-02T03:32:04.028Z,11.33
2022-09-02T03:34:50.386Z,11.57
2022-09-02T03:37:37.191Z,11.71
2022-09-02T03:40:26.015Z,11.75
2022-09-02T03:43:13.165Z,11.48
2022-09-02T03:45:59.685Z,11.64
2022-09-02T03:48:45.498Z,10.78
2022-09-02T03:51:33.199Z,11.21
2022-09-02T03:54:18.692Z,11.57
2022-09-02T03:57:04.926Z,11.51
2022-09-02T03:59:51.851Z,11.73
2022-09-02T04:02:37.776Z,11.29
2022-09-02T04:05:24.825Z,11.39
2022-09-02T04:08:14.232Z,11.52
2022-09-02T04:10:59.593Z,10.47
2022-09-02T04:13:47.074Z,10.27
2022-09-02T04:16:36.103Z,11.51
2022-09-02T04:19:25.085Z,10.42
2022-09-02T04:22:10.514Z,11.65
2022-09-02T04:24:57.194Z,11.65
2022-09-02T04:27:42.590Z,10.47
2022-09-02T04:30:28.388Z,11.66
2022-09-02T04:33:13.943Z,11.67
2022-09-02T04:36:00.395Z,11.68
2022-09-02T04:38:47.787Z,10.52
2022-09-02T04:41:35.794Z,11.61
2022-09-02T04:44:25.640Z,11.58
2022-09-02T04:47:11.634Z,11.23
2022-09-02T04:49:58.534Z,12.06
2022-09-02T04:52:44.186Z,12.15
2022-09-02T04:55:29.576Z,12.59
2022-09-02T04:58:16.776Z,11.80
2022-09-02T05:01:10.949Z,12.52
2022-09-02T05:03:56.602Z,12.73
2022-09-02T05:06:47.065Z,12.52
2022-09-02T05:09:37.306Z,12.39
2022-09-02T05:12:27.384Z,12.52
2022-09-02T05:15:16.950Z,13.75
2022-09-02T05:18:03.814Z,13.95
2022-09-02T05:20:51.532Z,13.99
2022-09-02T05:23:37.387Z,14.12
2022-09-02T05:26:24.223Z,13.17
2022-09-02T05:29:11.861Z,14.23
2022-09-02T05:31:59.296Z,14.17
2022-09-02T05:34:45.091Z,13.70
2022-09-02T05:37:31.052Z,13.37
2022-09-02T05:40:22.492Z,14.60
2022-09-02T05:43:08.871Z,14.69
2022-09-02T05:45:55.776Z,14.32
2022-09-02T05:49:00.393Z,13.79
2022-09-02T05:51:45.829Z,15.05
2022-09-02T05:54:37.067Z,15.22
2022-09-02T05:57:26.956Z,15.39
2022-09-02T06:00:18.267Z,15.35
2022-09-02T06:03:18.440Z,15.30
2022-09-02T06:06:06.717Z,15.33
2022-09-02T06:08:55.569Z,14.77
2022-09-02T06:11:49.334Z,15.33
2022-09-02T06:14:38.865Z,15.24
2022-09-02T06:17:25.792Z,15.09
2022-09-02T06:20:12.147Z,15.13
2022-09-02T06:22:59.903Z,14.18
2022-09-02T06:25:47.739Z,15.29
2022-09-02T06:28:33.715Z,15.43
2022-09-02T06:31:22.424Z,15.52
2022-09-02T06:34:09.195Z,15.41
2022-09-02T06:36:55.033Z,15.62
2022-09-02T06:39:44.869Z,15.12
2022-09-02T06:42:35.755Z,16.00
2022-09-02T06:45:28.894Z,15.13
2022-09-02T06:48:17.332Z,15.37
2022-09-02T06:51:03.818Z,15.47
2022-09-02T06:53:51.870Z,16.13
2022-09-02T06:56:39.909Z,16.31
2022-09-02T06:59:26.917Z,16.46
2022-09-02T07:05:10.064Z,16.62
2022-09-02T07:07:56.420Z,16.50
2022-09-02T07:10:42.267Z,16.45
2022-09-02T07:13:28.430Z,16.49
2022-09-02T07:16:20.450Z,16.60
2022-09-02T07:19:19.945Z,15.58
2022-09-02T07:22:07.262Z,16.67
2022-09-02T07:24:58.178Z,16.71
2022-09-02T07:27:50.337Z,16.68
2022-09-02T07:30:37.178Z,16.67
2022-09-02T07:33:28.215Z,15.51
2022-09-02T07:36:15.625Z,16.69
2022-09-02T07:39:01.787Z,15.61
2022-09-02T07:41:50.290Z,16.70
2022-09-02T07:44:37.930Z,16.55
2022-09-02T07:47:25.540Z,16.81
2022-09-02T07:50:17.058Z,16.69
2022-09-02T07:53:08.391Z,16.67
2022-09-02T07:55:55.431Z,15.91
2022-09-02T07:58:43.151Z,16.97
2022-09-02T08:01:29.737Z,16.79
2022-09-02T08:04:16.686Z,16.12
2022-09-02T08:07:01.961Z,17.25
2022-09-02T08:09:54.133Z,17.40
2022-09-02T08:12:41.492Z,17.19
2022-09-02T08:15:28.834Z,17.52
2022-09-02T08:18:22.267Z,17.50
2022-09-02T08:21:08.395Z,16.38
2022-09-02T08:23:54.296Z,16.69
2022-09-02T08:26:39.817Z,17.30
2022-09-02T08:29:25.149Z,17.01
2022-09-02T08:32:10.766Z,16.76
2022-09-02T08:34:56.686Z,17.76
2022-09-02T08:37:42.315Z,17.68
2022-09-02T08:40:40.942Z,16.69
2022-09-02T08:43:44.153Z,17.74
2022-09-02T08:46:32.896Z,17.55
2022-09-02T08:49:26.112Z,17.81
2022-09-02T08:52:20.074Z,17.86
2022-09-02T08:55:07.686Z,16.81
2022-09-02T08:57:56.574Z,18.01
2022-09-02T09:00:46.185Z,18.05
2022-09-02T09:03:51.631Z,18.12
2022-09-02T09:06:46.637Z,18.07
2022-09-02T09:09:44.651Z,18.15
2022-09-02T09:12:43.103Z,18.17
2022-09-02T09:15:49.544Z,18.20
2022-09-02T09:18:39.287Z,18.22
2022-09-02T09:24:36.842Z,18.29
2022-09-02T09:27:23.296Z,18.30
2022-09-02T09:30:15.025Z,16.42
2022-09-02T09:33:08.241Z,18.19
2022-09-02T09:35:55.452Z,18.40
2022-09-02T09:38:41.860Z,18.20
2022-09-02T09:41:29.124Z,18.45
2022-09-02T09:44:38.935Z,18.57
2022-09-02T09:47:26.065Z,18.58
2022-09-02T09:50:16.848Z,18.57
2022-09-02T09:53:23.280Z,18.60
2022-09-02T09:56:21.438Z,18.57
2022-09-02T09:59:09.496Z,18.08
2022-09-02T10:01:55.461Z,17.58
2022-09-02T10:04:43.637Z,18.45
2022-09-02T10:08:16.017Z,18.51
2022-09-02T10:11:06.457Z,18.53
2022-09-02T10:14:05.074Z,17.42
2022-09-02T10:16:57.014Z,18.49
2022-09-02T10:20:05.048Z,18.53
2022-09-02T10:23:11.754Z,18.57
2022-09-02T10:26:11.627Z,18.63
2022-09-02T10:29:23.454Z,18.60
2022-09-02T10:32:27.433Z,18.48
2022-09-02T10:35:19.339Z,18.59
2022-09-02T10:38:15.867Z,18.59
2022-09-02T10:41:14.596Z,18.57
2022-09-02T10:44:13.509Z,18.56
2022-09-02T10:47:04.990Z,18.53
2022-09-02T10:49:59.905Z,18.51
2022-09-02T10:53:09.513Z,17.45
2022-09-02T10:56:21.526Z,18.45
2022-09-02T10:59:40.581Z,18.40
2022-09-02T11:03:11.201Z,18.36
2022-09-02T11:06:14.626Z,18.31
2022-09-02T11:09:06.684Z,18.30
2022-09-02T11:12:04.401Z,17.94
2022-09-02T11:15:04.564Z,18.32
2022-09-02T11:18:19.830Z,18.32
2022-09-02T11:21:19.479Z,17.26
2022-09-02T11:24:29.546Z,18.32
2022-09-02T11:27:44.620Z,17.41
2022-09-02T11:30:47.544Z,17.91
2022-09-02T11:33:52.401Z,18.06
2022-09-02T11:36:39.922Z,18.33
2022-09-02T11:39:54.459Z,18.01
2022-09-02T11:43:15.368Z,18.30
2022-09-02T11:46:25.936Z,18.35
2022-09-02T11:49:29.606Z,17.37
2022-09-02T11:52:53.885Z,18.31
2022-09-02T11:55:57.299Z,18.27
2022-09-02T11:58:45.675Z,17.88
2022-09-02T12:01:43.969Z,18.06
2022-09-02T12:07:48.593Z,18.23
2022-09-02T12:11:00.577Z,18.27
2022-09-02T12:17:02.734Z,18.23
2022-09-02T12:19:50.665Z,17.12
2022-09-02T12:22:39.350Z,18.25
2022-09-02T12:25:27.006Z,18.24
2022-09-02T12:28:26.155Z,18.26
2022-09-02T12:31:40.760Z,18.25
2022-09-02T12:34:34.387Z,18.31
2022-09-02T12:37:58.103Z,18.34
2022-09-02T12:41:07.911Z,18.38
2022-09-02T12:44:23.759Z,18.43
2022-09-02T12:47:35.560Z,18.46
2022-09-02T12:50:55.361Z,18.44
2022-09-02T12:53:41.276Z,18.33
2022-09-02T12:56:27.332Z,18.19
2022-09-02T12:59:27.393Z,17.39
2022-09-02T13:02:31.642Z,18.38
2022-09-02T13:05:49.761Z,17.25
2022-09-02T13:08:41.124Z,17.33
2022-09-02T13:11:41.982Z,18.37
2022-09-02T13:14:42.611Z,17.30
2022-09-02T13:17:48.884Z,18.36
2022-09-02T13:20:43.624Z,18.35
2022-09-02T13:23:47.398Z,18.34
2022-09-02T13:27:06.107Z,18.36
2022-09-02T13:30:08.006Z,18.24
2022-09-02T13:33:06.507Z,18.31
2022-09-02T13:35:59.512Z,18.19
2022-09-02T13:38:44.825Z,17.98
2022-09-02T13:41:32.813Z,18.11
2022-09-02T13:44:24.588Z,18.08
2022-09-02T13:47:16.326Z,18.28
2022-09-02T13:50:02.029Z,18.08
2022-09-02T13:53:45.892Z,17.25
2022-09-02T13:56:00.247Z,17.99
2022-09-02T13:58:56.698Z,17.06
2022-09-02T14:01:42.222Z,17.14
2022-09-02T14:04:29.285Z,17.13
2022-09-02T14:07:15.833Z,17.13
2022-09-02T14:10:06.077Z,17.32
2022-09-02T14:12:52.138Z,17.36
2022-09-02T14:15:37.856Z,18.18
2022-09-02T14:18:25.014Z,18.05
2022-09-02T14:21:18.276Z,17.12
2022-09-02T14:24:04.820Z,17.19
2022-09-02T14:26:53.076Z,17.65
2022-09-02T14:29:44.749Z,18.29
2022-09-02T14:32:30.229Z,18.05
2022-09-02T14:35:18.488Z,18.30
2022-09-02T14:38:04.248Z,17.64
2022-09-02T14:40:49.726Z,17.22
2022-09-02T14:43:43.710Z,17.35
2022-09-02T14:46:46.074Z,18.14
2022-09-02T14:49:39.301Z,17.85
2022-09-02T14:52:33.351Z,17.17
2022-09-02T14:55:42.129Z,18.14
2022-09-02T14:58:28.978Z,17.87
2022-09-02T15:01:14.787Z,17.94
2022-09-02T15:04:02.599Z,18.02
2022-09-02T15:06:49.843Z,17.86
2022-09-02T15:09:35.942Z,17.97
2022-09-02T15:12:33.211Z,18.00
2022-09-02T15:15:19.145Z,17.86
2022-09-02T15:18:05.392Z,17.74
2022-09-02T15:20:55.045Z,17.87
2022-09-02T15:23:41.180Z,17.90
2022-09-02T15:26:28.700Z,17.84
2022-09-02T15:29:14.065Z,16.95
2022-09-02T15:32:00.443Z,16.86
2022-09-02T15:34:46.308Z,17.15
2022-09-02T15:37:35.141Z,17.73
2022-09-02T15:40:20.976Z,17.58
2022-09-02T15:43:06.333Z,17.79
2022-09-02T15:45:51.879Z,17.74
2022-09-02T15:48:37.349Z,17.62
2022-09-02T15:51:24.618Z,17.16
2022-09-02T15:54:11.534Z,17.65
2022-09-02T15:57:02.145Z,17.55
2022-09-02T15:59:48.073Z,16.51
2022-09-02T16:02:33.592Z,17.28
2022-09-02T16:05:18.834Z,17.33
2022-09-02T16:08:04.455Z,17.48
2022-09-02T16:10:50.621Z,17.08
2022-09-02T16:13:37.431Z,17.41
2022-09-02T16:16:22.699Z,17.51
2022-09-02T16:19:09.803Z,17.24
2022-09-02T16:21:55.488Z,16.39
2022-09-02T16:24:41.025Z,17.44
2022-09-02T16:27:45.138Z,17.44
2022-09-02T16:30:31.030Z,16.73
2022-09-02T16:33:16.932Z,16.64
2022-09-02T16:36:03.664Z,16.65
2022-09-02T16:38:49.238Z,16.36
2022-09-02T16:41:39.589Z,17.46
2022-09-02T16:44:26.747Z,17.42
2022-09-02T16:47:13.816Z,17.41
2022-09-02T16:50:00.217Z,16.81
2022-09-02T16:52:47.387Z,16.85
2022-09-02T16:55:33.619Z,16.70
2022-09-02T16:58:24.972Z,17.23
2022-09-02T17:01:12.500Z,17.10
2022-09-02T17:04:03.386Z,17.13
2022-09-02T17:06:52.272Z,17.14
2022-09-02T17:09:38.627Z,17.12
2022-09-02T17:12:24.029Z,17.04
2022-09-02T17:15:10.414Z,17.07
2022-09-02T17:17:57.134Z,16.61
2022-09-02T17:20:43.170Z,16.50
2022-09-02T17:23:28.701Z,16.98
2022-09-02T17:26:15.592Z,15.76
2022-09-02T17:29:06.589Z,16.82
2022-09-02T17:31:52.573Z,16.86
2022-09-02T17:34:38.007Z,16.81
2022-09-02T17:37:23.757Z,16.78
2022-09-02T17:40:32.619Z,16.72
2022-09-02T17:43:18.028Z,16.33
2022-09-02T17:46:08.862Z,16.74
2022-09-02T17:49:15.943Z,16.77
2022-09-02T17:52:07.686Z,16.70
2022-09-02T17:54:55.376Z,16.44
2022-09-02T17:58:15.076Z,16.63
2022-09-02T18:01:16.318Z,16.54
2022-09-02T18:04:41.328Z,16.48
2022-09-02T18:08:02.745Z,16.27
2022-09-02T18:11:04.516Z,15.85
2022-09-02T18:13:57.150Z,16.25
2022-09-02T18:16:48.297Z,16.20
2022-09-02T18:20:06.422Z,16.17
2022-09-02T18:23:30.335Z,13.70
2022-09-02T18:26:42.431Z,14.80
2022-09-02T18:29:40.470Z,15.60
2022-09-02T18:32:30.543Z,15.73
2022-09-02T18:35:44.136Z,15.67
2022-09-02T18:38:52.354Z,15.53
2022-09-02T18:41:45.150Z,15.57
2022-09-02T18:44:59.695Z,14.49
2022-09-02T18:47:50.061Z,15.60
2022-09-02T18:50:51.577Z,15.66
2022-09-02T18:53:45.033Z,14.69
2022-09-02T18:56:35.282Z,14.64
2022-09-02T18:59:30.079Z,14.67
2022-09-02T19:02:39.052Z,14.67
2022-09-02T19:05:26.937Z,15.55
2022-09-02T19:08:30.547Z,15.81
2022-09-02T19:11:17.921Z,15.79
2022-09-02T19:14:18.352Z,15.78
2022-09-02T19:17:04.114Z,15.69
2022-09-02T19:19:49.645Z,15.70
2022-09-02T19:22:39.824Z,15.67
2022-09-02T19:25:29.071Z,14.93
2022-09-02T19:28:18.100Z,15.55
2022-09-02T19:31:04.576Z,15.13
2022-09-02T19:33:53.677Z,15.52
2022-09-02T19:36:42.539Z,15.48
2022-09-02T19:39:30.243Z,15.51
2022-09-02T19:42:20.061Z,14.85
2022-09-02T19:45:14.168Z,14.48
2022-09-02T19:48:09.603Z,15.66
2022-09-02T19:50:55.303Z,14.59
2022-09-02T19:53:43.173Z,15.71
2022-09-02T19:56:29.110Z,15.23
2022-09-02T19:59:14.676Z,15.09
2022-09-02T20:02:00.585Z,14.57
2022-09-02T20:04:45.816Z,14.53
2022-09-02T20:07:31.422Z,15.61
2022-09-02T20:10:20.428Z,15.55
2022-09-02T20:13:15.978Z,14.52
2022-09-02T20:16:02.291Z,15.54
2022-09-02T20:18:50.063Z,14.25
2022-09-02T20:21:42.783Z,15.45
2022-09-02T20:24:32.315Z,15.48
2022-09-02T20:27:30.025Z,15.43
2022-09-02T20:30:18.853Z,15.39
2022-09-02T20:33:12.799Z,15.37
2022-09-02T20:35:58.363Z,14.26
2022-09-02T20:39:11.993Z,15.17
2022-09-02T20:42:35.329Z,15.37
2022-09-02T20:45:38.064Z,14.14
2022-09-02T20:48:39.976Z,15.11
2022-09-02T20:51:44.797Z,15.15
2022-09-02T20:54:52.978Z,15.32
2022-09-02T20:58:15.790Z,15.36
2022-09-02T21:01:08.391Z,14.25
2022-09-02T21:04:14.260Z,15.42
2022-09-02T21:07:11.076Z,15.37
2022-09-02T21:10:19.250Z,15.44
2022-09-02T21:13:17.252Z,15.45
2022-09-02T21:16:11.189Z,15.47
2022-09-02T21:19:03.638Z,14.91
2022-09-02T21:21:54.010Z,15.26
2022-09-02T21:25:09.512Z,14.18
2022-09-02T21:27:55.124Z,14.54
2022-09-02T21:30:45.968Z,14.16
2022-09-02T21:33:35.539Z,15.41
2022-09-02T21:36:28.064Z,15.03
2022-09-02T21:39:16.875Z,15.35
2022-09-02T21:42:14.543Z,15.35
2022-09-02T21:45:10.718Z,14.83
2022-09-02T21:48:15.159Z,15.29
2022-09-02T21:51:08.676Z,15.25
2022-09-02T21:54:13.519Z,15.22
2022-09-02T21:57:12.150Z,15.20
2022-09-02T21:59:57.688Z,15.20
2022-09-02T22:03:13.490Z,15.20
2022-09-02T22:06:16.898Z,15.21
2022-09-02T22:09:27.266Z,15.19
2022-09-02T22:12:14.647Z,15.13
2022-09-02T22:15:21.102Z,14.12
2022-09-02T22:18:28.814Z,15.20
2022-09-02T22:21:25.082Z,14.14
2022-09-02T22:24:11.265Z,15.22
2022-09-02T22:27:11.930Z,15.25
2022-09-02T22:30:09.673Z,15.27
2022-09-02T22:33:16.050Z,13.97
2022-09-02T22:36:20.321Z,15.25
2022-09-02T22:39:07.787Z,15.20
2022-09-02T22:42:03.044Z,15.24
2022-09-02T22:45:20.044Z,14.07
2022-09-02T22:48:51.963Z,14.44
2022-09-02T22:52:05.989Z,14.06
2022-09-02T22:54:52.310Z,15.11
2022-09-02T22:58:00.259Z,15.13
2022-09-02T23:00:53.390Z,15.09
2022-09-02T23:03:47.749Z,15.07
2022-09-02T23:06:33.589Z,13.90
2022-09-02T23:09:19.199Z,14.84
2022-09-02T23:12:23.167Z,14.95
2022-09-02T23:15:22.977Z,14.90
2022-09-02T23:18:29.725Z,14.88
2022-09-02T23:21:32.795Z,14.50
2022-09-02T23:24:21.449Z,14.85
2022-09-02T23:27:16.669Z,14.86
2022-09-02T23:30:02.442Z,14.79
2022-09-02T23:33:13.884Z,14.88
2022-09-02T23:36:34.318Z,14.88
2022-09-02T23:39:38.080Z,13.55
2022-09-02T23:42:25.264Z,13.86
2022-09-02T23:45:19.670Z,14.73
2022-09-02T23:48:23.646Z,14.65
2022-09-02T23:51:16.015Z,14.60
2022-09-02T23:54:18.841Z,13.41
2022-09-02T23:57:31.410Z,13.74
